createdAt,value
2023-05-04T00:00:48.122Z,11.0439
2023-05-04T00:01:50.521Z,11.0216
2023-05-04T00:02:52.973Z,10.9510
2023-05-04T00:03:55.632Z,10.9520
2023-05-04T00:04:55.659Z,10.9219
2023-05-04T00:05:58.020Z,10.9820
2023-05-04T00:07:00.362Z,10.9848
2023-05-04T00:08:02.688Z,10.9817
2023-05-04T00:09:05.183Z,10.9549
2023-05-04T00:10:07.918Z,10.9334
2023-05-04T00:11:08.069Z,10.9018
2023-05-04T00:12:10.383Z,10.8969
2023-05-04T00:13:12.808Z,10.8571
2023-05-04T00:14:15.143Z,10.8066
2023-05-04T00:15:17.516Z,10.7737
2023-05-04T00:16:19.828Z,10.7360
2023-05-04T00:17:22.148Z,10.7237
2023-05-04T00:18:24.509Z,10.6901
2023-05-04T00:19:26.846Z,10.6984
2023-05-04T00:20:29.265Z,10.7026
2023-05-04T00:21:31.639Z,10.7262
2023-05-04T00:22:34.043Z,10.7289
2023-05-04T00:23:36.414Z,10.6862
2023-05-04T00:24:38.818Z,10.7089
2023-05-04T00:25:41.293Z,10.6685
2023-05-04T00:26:43.661Z,10.6101
2023-05-04T00:27:46.046Z,10.6211
2023-05-04T00:28:48.429Z,10.6230
2023-05-04T00:29:50.840Z,10.6637
2023-05-04T00:30:53.192Z,10.6906
2023-05-04T00:31:55.759Z,10.6270
2023-05-04T00:32:55.979Z,10.6319
2023-05-04T00:33:58.411Z,10.6239
2023-05-04T00:35:00.872Z,10.6476
2023-05-04T00:36:03.258Z,10.6200
2023-05-04T00:37:05.713Z,10.6380
2023-05-04T00:38:08.103Z,10.6868
2023-05-04T00:39:10.489Z,10.6822
2023-05-04T00:40:12.876Z,10.6299
2023-05-04T00:41:15.233Z,10.6191
2023-05-04T00:42:17.553Z,10.6520
2023-05-04T00:43:19.972Z,10.6493
2023-05-04T00:44:22.516Z,10.6977
2023-05-04T00:45:24.861Z,10.5498
2023-05-04T00:46:27.288Z,10.5416
2023-05-04T00:47:29.741Z,10.4865
2023-05-04T00:48:32.201Z,10.4726
2023-05-04T00:49:34.557Z,10.5045
2023-05-04T00:50:36.888Z,10.4872
2023-05-04T00:51:39.277Z,10.4744
2023-05-04T00:52:41.671Z,10.5082
2023-05-04T00:53:43.997Z,10.4932
2023-05-04T00:54:46.339Z,10.5319
2023-05-04T00:55:48.698Z,10.5424
2023-05-04T00:56:51.035Z,10.5027
2023-05-04T00:57:53.425Z,10.4886
2023-05-04T00:58:55.862Z,10.5309
2023-05-04T00:59:58.232Z,10.5536
2023-05-04T01:01:00.618Z,10.5485
2023-05-04T01:02:02.994Z,10.5377
2023-05-04T01:03:05.620Z,10.4744
2023-05-04T01:04:08.246Z,10.4497
2023-05-04T01:05:08.201Z,10.4267
2023-05-04T01:06:10.531Z,10.3975
2023-05-04T01:07:12.967Z,10.3906
2023-05-04T01:08:15.329Z,10.4083
2023-05-04T01:09:17.738Z,10.4099
2023-05-04T01:10:20.213Z,10.3840
2023-05-04T01:11:22.752Z,10.3752
2023-05-04T01:12:25.197Z,10.4243
2023-05-04T01:13:27.588Z,10.3591
2023-05-04T01:14:29.934Z,10.3200
2023-05-04T01:15:32.449Z,10.3154
2023-05-04T01:16:34.885Z,10.3047
2023-05-04T01:17:37.276Z,10.2870
2023-05-04T01:18:39.647Z,10.2950
2023-05-04T01:19:42.065Z,10.2660
2023-05-04T01:20:44.389Z,10.2355
2023-05-04T01:21:46.924Z,10.2730
2023-05-04T01:22:49.391Z,10.2498
2023-05-04T01:23:51.778Z,10.3273
2023-05-04T01:24:54.163Z,10.3793
2023-05-04T01:25:56.591Z,10.3315
2023-05-04T01:26:58.960Z,10.3109
2023-05-04T01:28:01.332Z,10.2574
2023-05-04T01:29:03.757Z,10.1888
2023-05-04T01:30:06.319Z,10.1686
2023-05-04T01:31:06.284Z,10.1737
2023-05-04T01:32:08.683Z,10.1851
2023-05-04T01:33:11.095Z,10.1499
2023-05-04T01:34:13.548Z,10.1214
2023-05-04T01:35:15.963Z,10.1268
2023-05-04T01:36:18.389Z,10.0801
2023-05-04T01:37:20.822Z,10.1096
2023-05-04T01:38:23.263Z,10.0982
2023-05-04T01:39:25.675Z,10.0432
2023-05-04T01:40:28.101Z,10.0174
2023-05-04T01:41:30.493Z,10.0742
2023-05-04T01:42:32.927Z,10.0078
2023-05-04T01:43:35.316Z,9.9985
2023-05-04T01:44:37.790Z,9.9607
2023-05-04T01:45:40.197Z,9.9130
2023-05-04T01:46:42.582Z,9.8970
2023-05-04T01:47:45.016Z,9.9092
2023-05-04T01:48:47.542Z,9.9090
2023-05-04T01:49:50.036Z,9.9800
2023-05-04T01:50:52.432Z,9.9995
2023-05-04T01:51:54.775Z,10.0212
2023-05-04T01:52:57.166Z,9.9651
2023-05-04T01:53:59.654Z,9.9492
2023-05-04T01:55:02.106Z,9.8704
2023-05-04T01:56:04.478Z,9.8716
2023-05-04T01:57:06.889Z,9.9281
2023-05-04T01:58:09.283Z,9.9754
2023-05-04T01:59:11.680Z,10.0260
2023-05-04T02:00:14.074Z,10.0265
2023-05-04T02:01:16.557Z,10.0284
2023-05-04T02:02:18.971Z,9.9667
2023-05-04T02:03:21.473Z,9.9082
2023-05-04T02:04:23.957Z,9.8828
2023-05-04T02:05:26.267Z,9.8859
2023-05-04T02:06:28.638Z,9.8573
2023-05-04T02:07:31.020Z,9.8520
2023-05-04T02:08:33.387Z,9.8329
2023-05-04T02:09:35.791Z,9.8052
2023-05-04T02:10:38.159Z,9.8433
2023-05-04T02:11:40.493Z,9.8408
2023-05-04T02:12:42.872Z,9.8129
2023-05-04T02:13:45.398Z,9.7942
2023-05-04T02:14:47.824Z,9.7637
2023-05-04T02:15:50.261Z,9.7687
2023-05-04T02:16:52.652Z,9.7465
2023-05-04T02:17:55.058Z,9.7795
2023-05-04T02:18:57.509Z,9.8050
2023-05-04T02:19:59.862Z,9.8233
2023-05-04T02:21:02.317Z,9.7995
2023-05-04T02:22:04.738Z,9.7439
2023-05-04T02:23:07.220Z,9.7363
2023-05-04T02:24:09.639Z,9.7717
2023-05-04T02:25:12.005Z,9.7439
2023-05-04T02:26:14.375Z,9.7192
2023-05-04T02:27:16.812Z,9.6889
2023-05-04T02:28:19.166Z,9.6933
2023-05-04T02:29:21.517Z,9.6704
2023-05-04T02:30:23.954Z,9.6446
2023-05-04T02:31:26.385Z,9.6240
2023-05-04T02:32:28.876Z,9.5728
2023-05-04T02:33:31.254Z,9.5892
2023-05-04T02:34:33.667Z,9.5975
2023-05-04T02:35:36.034Z,9.6401
2023-05-04T02:36:38.499Z,9.6331
2023-05-04T02:37:40.957Z,9.6142
2023-05-04T02:38:43.376Z,9.6295
2023-05-04T02:39:45.809Z,9.6336
2023-05-04T02:40:48.286Z,9.6327
2023-05-04T02:41:50.713Z,9.5799
2023-05-04T02:42:53.150Z,9.5683
2023-05-04T02:43:55.563Z,9.6150
2023-05-04T02:44:58.024Z,9.6125
2023-05-04T02:46:00.489Z,9.5661
2023-05-04T02:47:02.955Z,9.5245
2023-05-04T02:48:05.929Z,9.4854
2023-05-04T02:49:08.451Z,9.4969
2023-05-04T02:50:10.887Z,9.5735
2023-05-04T02:51:13.288Z,9.5262
2023-05-04T02:52:15.635Z,9.5038
2023-05-04T02:53:18.058Z,9.5108
2023-05-04T02:54:20.441Z,9.5026
2023-05-04T02:55:22.811Z,9.4526
2023-05-04T02:56:25.184Z,9.3787
2023-05-04T02:57:27.615Z,9.4116
2023-05-04T02:58:29.988Z,9.4567
2023-05-04T02:59:32.432Z,9.4166
2023-05-04T03:00:34.787Z,9.4327
2023-05-04T03:01:37.240Z,9.4627
2023-05-04T03:02:39.652Z,9.4379
2023-05-04T03:03:42.014Z,9.4212
2023-05-04T03:04:44.383Z,9.4251
2023-05-04T03:05:46.803Z,9.4334
2023-05-04T03:06:49.165Z,9.4107
2023-05-04T03:07:51.544Z,9.4249
2023-05-04T03:08:53.982Z,9.3894
2023-05-04T03:09:56.376Z,9.4152
2023-05-04T03:10:58.809Z,9.4629
2023-05-04T03:12:01.232Z,9.4779
2023-05-04T03:13:03.678Z,9.4640
2023-05-04T03:14:06.152Z,9.4371
2023-05-04T03:15:08.531Z,9.3781
2023-05-04T03:16:11.052Z,9.3588
2023-05-04T03:17:13.452Z,9.4018
2023-05-04T03:18:15.923Z,9.3802
2023-05-04T03:19:18.284Z,9.4385
2023-05-04T03:20:20.716Z,9.3482
2023-05-04T03:21:23.189Z,9.2919
2023-05-04T03:22:25.603Z,9.2492
2023-05-04T03:23:27.984Z,9.2202
2023-05-04T03:24:30.400Z,9.2282
2023-05-04T03:25:32.733Z,9.2267
2023-05-04T03:26:35.231Z,9.1965
2023-05-04T03:27:37.621Z,9.2076
2023-05-04T03:28:40.023Z,9.2366
2023-05-04T03:29:42.368Z,9.2040
2023-05-04T03:30:44.836Z,9.2076
2023-05-04T03:31:47.213Z,9.1919
2023-05-04T03:32:49.669Z,9.1992
2023-05-04T03:33:52.049Z,9.1890
2023-05-04T03:34:54.484Z,9.1838
2023-05-04T03:35:56.834Z,9.2170
2023-05-04T03:36:59.220Z,9.2250
2023-05-04T03:38:01.598Z,9.1694
2023-05-04T03:39:04.200Z,9.1580
2023-05-04T03:40:06.930Z,9.1580
2023-05-04T03:41:06.891Z,9.1361
2023-05-04T03:42:09.264Z,9.1115
2023-05-04T03:43:11.657Z,9.1341
2023-05-04T03:44:14.080Z,9.1382
2023-05-04T03:45:16.527Z,9.1469
2023-05-04T03:46:18.912Z,9.1713
2023-05-04T03:47:21.304Z,9.2042
2023-05-04T03:48:23.701Z,9.2377
2023-05-04T03:49:26.127Z,9.2089
2023-05-04T03:50:28.488Z,9.1682
2023-05-04T03:51:30.878Z,9.1688
2023-05-04T03:52:33.245Z,9.1628
2023-05-04T03:53:35.704Z,9.1835
2023-05-04T03:54:38.178Z,9.1261
2023-05-04T03:55:40.637Z,9.1194
2023-05-04T03:56:43.073Z,9.0965
2023-05-04T03:57:45.477Z,9.1072
2023-05-04T03:58:47.887Z,9.0926
2023-05-04T03:59:50.606Z,9.0610
2023-05-04T04:00:52.999Z,9.0878
2023-05-04T04:01:55.489Z,9.0927
2023-05-04T04:02:57.864Z,9.0564
2023-05-04T04:04:00.376Z,9.0610
2023-05-04T04:05:02.966Z,9.0803
2023-05-04T04:06:05.360Z,9.0958
2023-05-04T04:07:07.732Z,9.1026
2023-05-04T04:08:10.106Z,9.0915
2023-05-04T04:09:12.476Z,9.0688
2023-05-04T04:10:14.903Z,9.1346
2023-05-04T04:11:17.287Z,9.1453
2023-05-04T04:12:19.721Z,9.1645
2023-05-04T04:13:22.125Z,9.1213
2023-05-04T04:14:24.557Z,9.1027
2023-05-04T04:15:26.981Z,9.1164
2023-05-04T04:16:29.363Z,9.1219
2023-05-04T04:17:31.801Z,9.1398
2023-05-04T04:18:34.261Z,9.1143
2023-05-04T04:19:36.652Z,9.0982
2023-05-04T04:20:39.042Z,9.0851
2023-05-04T04:21:41.402Z,9.0475
2023-05-04T04:22:43.800Z,9.0244
2023-05-04T04:23:46.207Z,9.0734
2023-05-04T04:24:48.612Z,9.0538
2023-05-04T04:25:51.073Z,9.0625
2023-05-04T04:26:53.488Z,9.0779
2023-05-04T04:27:55.885Z,9.0625
2023-05-04T04:28:58.285Z,9.0597
2023-05-04T04:30:00.692Z,9.0760
2023-05-04T04:31:03.239Z,9.1044
2023-05-04T04:32:05.672Z,9.0069
2023-05-04T04:33:08.081Z,8.9211
2023-05-04T04:34:10.488Z,8.8495
2023-05-04T04:35:12.836Z,8.8931
2023-05-04T04:36:15.295Z,8.9264
2023-05-04T04:37:17.670Z,8.9381
2023-05-04T04:38:20.054Z,8.9993
2023-05-04T04:39:22.521Z,8.9800
2023-05-04T04:40:24.886Z,8.9832
2023-05-04T04:41:27.289Z,9.0169
2023-05-04T04:42:29.632Z,8.9795
2023-05-04T04:43:32.061Z,8.9892
2023-05-04T04:44:34.495Z,8.9826
2023-05-04T04:45:36.884Z,8.9887
2023-05-04T04:46:39.365Z,8.9899
2023-05-04T04:47:41.796Z,9.0121
2023-05-04T04:48:44.327Z,9.0157
2023-05-04T04:49:46.750Z,9.0222
2023-05-04T04:50:49.158Z,9.0475
2023-05-04T04:51:51.724Z,9.0892
2023-05-04T04:52:54.145Z,9.1177
2023-05-04T04:53:56.589Z,9.1416
2023-05-04T04:54:59.040Z,9.1659
2023-05-04T04:56:01.488Z,9.1819
2023-05-04T04:57:03.911Z,9.1946
2023-05-04T04:58:06.602Z,9.1550
2023-05-04T04:59:09.077Z,9.1347
2023-05-04T05:00:11.724Z,9.1268
2023-05-04T05:01:14.206Z,9.1562
2023-05-04T05:02:16.719Z,9.1461
2023-05-04T05:03:19.165Z,9.1340
2023-05-04T05:04:21.661Z,9.2119
2023-05-04T05:05:24.044Z,9.1693
2023-05-04T05:06:26.543Z,9.1745
2023-05-04T05:07:29.143Z,9.1625
2023-05-04T05:08:31.712Z,9.1708
2023-05-04T05:09:34.203Z,9.1925
2023-05-04T05:10:36.684Z,9.2016
2023-05-04T05:11:39.315Z,9.2010
2023-05-04T05:12:41.819Z,9.2550
2023-05-04T05:13:44.294Z,9.2544
2023-05-04T05:14:46.724Z,9.2659
2023-05-04T05:15:49.142Z,9.2824
2023-05-04T05:16:51.712Z,9.3282
2023-05-04T05:17:54.253Z,9.3794
2023-05-04T05:18:56.751Z,9.3708
2023-05-04T05:19:59.266Z,9.3496
2023-05-04T05:21:01.680Z,9.3419
2023-05-04T05:22:04.378Z,9.3907
2023-05-04T05:23:06.798Z,9.4050
2023-05-04T05:24:09.271Z,9.4043
2023-05-04T05:25:11.703Z,9.4553
2023-05-04T05:26:14.196Z,9.5328
2023-05-04T05:27:16.666Z,9.5826
2023-05-04T05:28:19.130Z,9.6034
2023-05-04T05:29:21.575Z,9.6497
2023-05-04T05:30:24.097Z,9.6670
2023-05-04T05:31:26.688Z,9.6942
2023-05-04T05:32:26.749Z,9.7145
2023-05-04T05:33:29.202Z,9.7400
2023-05-04T05:34:31.694Z,9.7643
2023-05-04T05:35:34.149Z,9.7851
2023-05-04T05:36:36.655Z,9.8021
2023-05-04T05:37:39.073Z,9.8026
2023-05-04T05:38:41.475Z,9.8164
2023-05-04T05:39:43.916Z,9.8679
2023-05-04T05:40:46.381Z,9.8762
2023-05-04T05:41:48.788Z,9.9183
2023-05-04T05:42:51.220Z,9.9744
2023-05-04T05:43:53.677Z,9.9775
2023-05-04T05:44:56.157Z,10.0019
2023-05-04T05:45:58.620Z,10.0388
2023-05-04T05:47:01.028Z,9.9900
2023-05-04T05:48:03.515Z,10.0147
2023-05-04T05:49:06.015Z,10.0871
2023-05-04T05:50:08.672Z,10.1240
2023-05-04T05:51:11.310Z,10.1942
2023-05-04T05:52:13.787Z,10.2345
2023-05-04T05:53:16.264Z,10.2922
2023-05-04T05:54:18.697Z,10.3183
2023-05-04T05:55:21.147Z,10.2842
2023-05-04T05:56:23.614Z,10.2762
2023-05-04T05:57:26.124Z,10.2904
2023-05-04T05:58:28.551Z,10.2671
2023-05-04T05:59:31.020Z,10.2876
2023-05-04T06:00:33.489Z,10.3614
2023-05-04T06:01:35.919Z,10.3938
2023-05-04T06:02:38.624Z,10.4227
2023-05-04T06:03:41.461Z,10.4642
2023-05-04T06:04:41.351Z,10.5009
2023-05-04T06:05:43.853Z,10.5535
2023-05-04T06:06:46.325Z,10.5770
2023-05-04T06:07:48.778Z,10.6219
2023-05-04T06:08:51.273Z,10.6159
2023-05-04T06:09:53.694Z,10.6022
2023-05-04T06:10:56.080Z,10.6480
2023-05-04T06:11:58.490Z,10.6588
2023-05-04T06:13:01.006Z,10.7340
2023-05-04T06:14:03.475Z,10.8002
2023-05-04T06:15:05.949Z,10.8185
2023-05-04T06:16:08.466Z,10.7753
2023-05-04T06:17:10.889Z,10.7972
2023-05-04T06:18:13.362Z,10.8163
2023-05-04T06:19:15.751Z,10.8377
2023-05-04T06:20:18.188Z,10.8695
2023-05-04T06:21:20.643Z,10.8991
2023-05-04T06:22:23.374Z,10.8965
2023-05-04T06:23:25.771Z,10.9628
2023-05-04T06:24:28.241Z,10.9718
2023-05-04T06:25:30.637Z,11.0161
2023-05-04T06:26:33.103Z,11.0106
2023-05-04T06:27:35.623Z,11.0464
2023-05-04T06:28:38.060Z,11.0100
2023-05-04T06:29:40.501Z,11.0434
2023-05-04T06:30:42.993Z,11.1401
2023-05-04T06:31:46.777Z,11.2179
2023-05-04T06:32:48.015Z,11.2240
2023-05-04T06:33:50.544Z,11.2765
2023-05-04T06:34:53.003Z,11.5140
2023-05-04T06:35:55.469Z,11.8610
2023-05-04T06:36:57.933Z,12.0637
2023-05-04T06:38:00.339Z,12.1868
2023-05-04T06:39:02.768Z,12.2088
2023-05-04T06:40:05.254Z,12.2169
2023-05-04T06:41:07.706Z,12.1174
2023-05-04T06:42:10.093Z,12.1006
2023-05-04T06:43:12.569Z,11.8592
2023-05-04T06:44:15.014Z,11.8055
2023-05-04T06:45:17.442Z,11.8477
2023-05-04T06:46:19.906Z,11.5901
2023-05-04T06:47:22.451Z,11.4701
2023-05-04T06:48:25.015Z,11.6419
2023-05-04T06:49:27.413Z,11.7639
2023-05-04T06:50:29.810Z,11.8274
2023-05-04T06:51:32.263Z,11.9463
2023-05-04T06:52:34.678Z,12.0192
2023-05-04T06:53:37.305Z,11.9638
2023-05-04T06:54:39.676Z,12.0910
2023-05-04T06:55:42.086Z,12.1835
2023-05-04T06:56:44.520Z,12.2493
2023-05-04T06:57:46.913Z,12.3605
2023-05-04T06:58:49.326Z,12.3127
2023-05-04T06:59:51.739Z,12.2952
2023-05-04T07:00:54.136Z,12.3916
2023-05-04T07:01:56.522Z,12.4519
2023-05-04T07:02:58.969Z,12.4174
2023-05-04T07:04:01.415Z,12.2739
2023-05-04T07:05:03.855Z,12.4093
2023-05-04T07:06:06.360Z,12.5138
2023-05-04T07:07:08.784Z,12.4424
2023-05-04T07:08:11.173Z,12.4161
2023-05-04T07:09:13.579Z,12.5094
2023-05-04T07:10:16.001Z,12.4351
2023-05-04T07:11:18.406Z,12.2234
2023-05-04T07:12:20.871Z,12.2999
2023-05-04T07:13:23.478Z,12.1331
2023-05-04T07:14:25.864Z,12.1876
2023-05-04T07:15:28.276Z,12.2749
2023-05-04T07:16:30.658Z,12.2342
2023-05-04T07:17:33.076Z,12.2521
2023-05-04T07:18:35.511Z,12.2401
2023-05-04T07:19:37.961Z,12.2492
2023-05-04T07:20:40.362Z,12.2810
2023-05-04T07:21:42.806Z,12.4075
2023-05-04T07:22:45.199Z,12.5030
2023-05-04T07:23:47.558Z,12.5053
2023-05-04T07:24:49.966Z,12.4170
2023-05-04T07:25:53.607Z,12.4345
2023-05-04T07:26:53.541Z,12.4955
2023-05-04T07:27:55.937Z,12.3748
2023-05-04T07:28:58.328Z,12.3925
2023-05-04T07:30:00.729Z,12.4736
2023-05-04T07:31:03.090Z,12.6004
2023-05-04T07:32:05.527Z,12.7864
2023-05-04T07:33:07.915Z,12.6157
2023-05-04T07:34:10.288Z,12.7107
2023-05-04T07:35:12.891Z,12.8013
2023-05-04T07:36:15.337Z,12.8803
2023-05-04T07:37:17.761Z,12.8107
2023-05-04T07:38:20.128Z,12.6048
2023-05-04T07:39:22.558Z,12.7495
2023-05-04T07:40:24.991Z,12.9174
2023-05-04T07:41:27.421Z,12.9915
2023-05-04T07:42:29.857Z,13.0861
2023-05-04T07:43:32.238Z,13.1246
2023-05-04T07:44:34.647Z,13.1220
2023-05-04T07:45:37.096Z,12.9543
2023-05-04T07:46:39.629Z,12.9273
2023-05-04T07:47:42.196Z,12.9284
2023-05-04T07:48:44.646Z,12.9351
2023-05-04T07:49:47.065Z,12.8739
2023-05-04T07:50:49.472Z,12.8904
2023-05-04T07:51:51.900Z,12.9978
2023-05-04T07:52:54.341Z,13.0346
2023-05-04T07:53:56.759Z,13.1332
2023-05-04T07:54:59.170Z,13.1500
2023-05-04T07:56:01.573Z,13.0868
2023-05-04T07:57:03.998Z,13.1235
2023-05-04T07:58:06.391Z,13.1365
2023-05-04T07:59:08.813Z,13.1423
2023-05-04T08:00:11.196Z,13.1525
2023-05-04T08:01:13.599Z,13.1761
2023-05-04T08:02:16.015Z,13.2888
2023-05-04T08:03:18.412Z,13.3444
2023-05-04T08:04:20.814Z,13.4117
2023-05-04T08:05:23.283Z,13.3412
2023-05-04T08:06:25.725Z,13.3051
2023-05-04T08:07:28.129Z,13.2856
2023-05-04T08:08:30.515Z,13.2945
2023-05-04T08:09:32.857Z,13.4477
2023-05-04T08:10:35.267Z,13.6026
2023-05-04T08:11:37.869Z,13.6827
2023-05-04T08:12:37.912Z,13.7152
2023-05-04T08:13:40.298Z,13.8357
2023-05-04T08:14:42.667Z,13.8568
2023-05-04T08:15:45.024Z,13.9386
2023-05-04T08:16:47.438Z,14.0041
2023-05-04T08:17:49.848Z,13.9785
2023-05-04T08:18:52.204Z,13.7619
2023-05-04T08:19:54.584Z,13.8615
2023-05-04T08:20:56.981Z,13.9378
2023-05-04T08:21:59.314Z,13.9685
2023-05-04T08:23:01.916Z,14.0284
2023-05-04T08:24:04.426Z,14.0652
2023-05-04T08:25:06.988Z,13.8695
2023-05-04T08:26:06.794Z,13.8584
2023-05-04T08:27:09.317Z,13.8939
2023-05-04T08:28:09.709Z,13.9178
2023-05-04T08:29:12.097Z,13.9700
2023-05-04T08:30:14.493Z,14.0084
2023-05-04T08:31:16.958Z,13.9879
2023-05-04T08:32:19.328Z,14.1163
2023-05-04T08:33:21.695Z,14.2422
2023-05-04T08:34:24.093Z,14.2499
2023-05-04T08:35:26.474Z,14.3542
2023-05-04T08:36:28.855Z,14.4081
2023-05-04T08:37:31.193Z,14.4583
2023-05-04T08:38:33.608Z,14.4225
2023-05-04T08:39:35.959Z,14.4191
2023-05-04T08:40:38.345Z,14.3982
2023-05-04T08:41:40.689Z,14.4617
2023-05-04T08:42:43.090Z,14.4313
2023-05-04T08:43:45.446Z,14.6600
2023-05-04T08:44:47.856Z,14.7532
2023-05-04T08:45:50.299Z,14.8307
2023-05-04T08:46:52.711Z,14.6950
2023-05-04T08:47:55.150Z,14.5891
2023-05-04T08:48:57.643Z,14.5022
2023-05-04T08:50:00.031Z,14.7766
2023-05-04T08:51:02.400Z,14.7217
2023-05-04T08:52:04.755Z,14.6568
2023-05-04T08:53:07.140Z,14.7088
2023-05-04T08:54:09.516Z,14.8485
2023-05-04T08:55:11.901Z,14.9336
2023-05-04T08:56:14.237Z,14.9241
2023-05-04T08:57:14.316Z,14.8713
2023-05-04T08:58:16.676Z,14.9542
2023-05-04T08:59:19.015Z,15.0438
2023-05-04T09:00:21.382Z,14.9497
2023-05-04T09:01:23.839Z,15.0366
2023-05-04T09:02:26.274Z,15.1086
2023-05-04T09:03:28.727Z,15.2932
2023-05-04T09:04:31.141Z,15.3754
2023-05-04T09:05:33.528Z,15.3610
2023-05-04T09:06:35.868Z,15.5026
2023-05-04T09:07:38.207Z,15.6827
2023-05-04T09:08:40.604Z,15.7273
2023-05-04T09:09:42.965Z,15.6123
2023-05-04T09:10:45.340Z,15.6171
2023-05-04T09:11:47.711Z,15.6082
2023-05-04T09:12:50.092Z,15.7314
2023-05-04T09:13:52.458Z,15.6111
2023-05-04T09:14:54.799Z,15.7375
2023-05-04T09:15:57.185Z,15.5015
2023-05-04T09:16:59.541Z,15.5615
2023-05-04T09:18:01.943Z,15.6593
2023-05-04T09:19:04.291Z,15.7230
2023-05-04T09:20:06.654Z,15.6512
2023-05-04T09:21:09.017Z,15.6909
2023-05-04T09:22:11.391Z,15.8192
2023-05-04T09:23:13.849Z,15.9160
2023-05-04T09:24:16.207Z,16.0623
2023-05-04T09:25:18.632Z,16.0536
2023-05-04T09:26:20.995Z,16.0120
2023-05-04T09:27:23.313Z,16.0351
2023-05-04T09:28:27.739Z,16.1358
2023-05-04T09:29:28.319Z,16.1166
2023-05-04T09:30:30.648Z,16.0766
2023-05-04T09:31:33.110Z,16.0753
2023-05-04T09:32:35.559Z,16.1468
2023-05-04T09:33:37.866Z,16.2582
2023-05-04T09:34:40.235Z,16.4119
2023-05-04T09:35:42.600Z,16.2666
2023-05-04T09:36:44.959Z,16.4690
2023-05-04T09:37:47.341Z,16.6558
2023-05-04T09:38:49.674Z,16.6383
2023-05-04T09:39:52.073Z,16.7107
2023-05-04T09:40:54.485Z,16.8306
2023-05-04T09:41:56.813Z,16.6661
2023-05-04T09:42:59.122Z,16.6306
2023-05-04T09:44:01.452Z,16.8185
2023-05-04T09:45:04.085Z,16.7404
2023-05-04T09:46:03.974Z,16.8214
2023-05-04T09:47:06.311Z,16.7791
2023-05-04T09:48:08.745Z,16.7319
2023-05-04T09:49:11.126Z,16.8789
2023-05-04T09:50:13.510Z,16.7141
2023-05-04T09:51:15.888Z,16.5720
2023-05-04T09:52:18.219Z,16.7994
2023-05-04T09:53:20.601Z,16.7761
2023-05-04T09:54:22.963Z,16.7670
2023-05-04T09:55:25.300Z,16.9305
2023-05-04T09:56:27.776Z,16.9744
2023-05-04T09:57:30.110Z,16.9513
2023-05-04T09:58:32.441Z,16.9152
2023-05-04T09:59:34.815Z,16.9777
2023-05-04T10:00:37.125Z,17.1110
2023-05-04T10:01:39.530Z,17.1106
2023-05-04T10:02:41.876Z,17.1150
2023-05-04T10:03:44.309Z,17.2479
2023-05-04T10:04:46.684Z,17.1557
2023-05-04T10:05:49.102Z,17.0904
2023-05-04T10:06:51.679Z,17.2526
2023-05-04T10:07:54.247Z,17.1534
2023-05-04T10:08:55.849Z,16.8190
2023-05-04T10:09:59.608Z,16.9808
2023-05-04T10:11:02.029Z,17.0783
2023-05-04T10:12:04.407Z,17.1555
2023-05-04T10:13:06.849Z,17.3646
2023-05-04T10:14:09.264Z,17.4006
2023-05-04T10:15:11.617Z,17.3587
2023-05-04T10:16:14.083Z,17.3454
2023-05-04T10:17:16.475Z,17.2650
2023-05-04T10:18:18.895Z,17.1342
2023-05-04T10:19:21.256Z,17.2690
2023-05-04T10:20:23.695Z,17.4708
2023-05-04T10:21:26.173Z,17.6662
2023-05-04T10:22:28.529Z,17.6418
2023-05-04T10:23:30.961Z,17.5294
2023-05-04T10:24:33.318Z,17.5338
2023-05-04T10:25:35.757Z,17.6496
2023-05-04T10:26:38.161Z,17.8213
2023-05-04T10:27:40.598Z,17.9688
2023-05-04T10:28:43.025Z,18.0173
2023-05-04T10:29:45.445Z,17.9683
2023-05-04T10:30:47.901Z,18.1735
2023-05-04T10:31:50.372Z,18.3756
2023-05-04T10:32:52.775Z,18.3821
2023-05-04T10:33:55.101Z,18.2870
2023-05-04T10:34:57.468Z,18.2556
2023-05-04T10:35:59.851Z,18.3838
2023-05-04T10:37:02.337Z,18.1993
2023-05-04T10:38:04.710Z,18.2579
2023-05-04T10:39:07.084Z,18.3302
2023-05-04T10:40:09.453Z,18.1161
2023-05-04T10:41:11.816Z,17.9036
2023-05-04T10:42:14.232Z,17.5964
2023-05-04T10:43:16.577Z,17.8173
2023-05-04T10:44:18.958Z,17.9019
2023-05-04T10:45:21.344Z,18.0580
2023-05-04T10:46:23.728Z,18.2297
2023-05-04T10:47:26.148Z,18.2242
2023-05-04T10:48:28.502Z,18.2195
2023-05-04T10:49:30.910Z,18.3527
2023-05-04T10:50:33.365Z,18.5825
2023-05-04T10:51:48.701Z,18.5683
2023-05-04T10:52:33.976Z,18.4519
2023-05-04T10:53:36.519Z,18.4320
2023-05-04T10:54:38.960Z,18.5865
2023-05-04T10:55:41.328Z,18.5124
2023-05-04T10:56:43.658Z,18.9950
2023-05-04T10:57:46.063Z,19.1124
2023-05-04T10:58:48.494Z,19.0310
2023-05-04T10:59:50.878Z,18.9279
2023-05-04T11:00:53.298Z,19.3241
2023-05-04T11:01:55.712Z,19.6150
2023-05-04T11:02:58.166Z,19.8034
2023-05-04T11:04:00.618Z,19.7834
2023-05-04T11:05:03.268Z,19.8055
2023-05-04T11:06:03.310Z,19.5918
2023-05-04T11:07:05.847Z,19.6529
2023-05-04T11:08:08.296Z,20.1313
2023-05-04T11:09:10.623Z,20.5850
2023-05-04T11:10:13.007Z,20.9504
2023-05-04T11:11:15.316Z,20.9946
2023-05-04T11:12:17.598Z,20.6571
2023-05-04T11:13:19.916Z,20.4074
2023-05-04T11:14:22.178Z,20.7265
2023-05-04T11:15:24.507Z,20.7560
2023-05-04T11:16:26.874Z,20.7551
2023-05-04T11:17:29.138Z,20.9751
2023-05-04T11:18:31.403Z,21.3038
2023-05-04T11:19:33.698Z,21.5067
2023-05-04T11:20:35.978Z,21.5478
2023-05-04T11:21:38.257Z,21.9165
2023-05-04T11:22:40.549Z,21.6525
2023-05-04T11:23:42.775Z,20.9179
2023-05-04T11:24:45.075Z,20.1927
2023-05-04T11:25:47.361Z,20.7371
2023-05-04T11:26:49.664Z,21.3050
2023-05-04T11:27:52.073Z,21.2143
2023-05-04T11:28:54.322Z,21.7707
2023-05-04T11:29:56.579Z,22.3303
2023-05-04T11:30:59.308Z,22.2167
2023-05-04T11:31:59.651Z,22.1500
2023-05-04T11:33:01.969Z,22.2886
2023-05-04T11:34:04.188Z,22.3603
2023-05-04T11:35:06.641Z,22.7526
2023-05-04T11:36:06.223Z,22.4768
2023-05-04T11:37:08.437Z,22.1608
2023-05-04T11:38:10.673Z,22.8898
2023-05-04T11:39:12.838Z,22.8278
2023-05-04T11:40:15.102Z,22.0179
2023-05-04T11:41:17.304Z,21.9357
2023-05-04T11:42:19.520Z,22.5102
2023-05-04T11:43:21.642Z,22.5466
2023-05-04T11:44:23.767Z,22.8270
2023-05-04T11:45:25.946Z,22.6837
2023-05-04T11:46:28.169Z,23.0655
2023-05-04T11:47:30.243Z,23.3433
2023-05-04T11:48:32.388Z,23.3660
2023-05-04T11:49:34.518Z,23.5988
2023-05-04T11:50:36.593Z,22.8921
2023-05-04T11:51:38.812Z,22.8818
2023-05-04T11:52:41.201Z,23.2426
2023-05-04T11:53:43.354Z,23.0673
2023-05-04T11:54:45.520Z,23.0280
2023-05-04T11:55:47.697Z,22.7455
2023-05-04T11:56:49.812Z,22.2283
2023-05-04T11:57:51.952Z,21.7654
2023-05-04T11:58:54.074Z,22.3844
2023-05-04T11:59:56.227Z,22.6683
2023-05-04T12:00:58.344Z,22.7198
2023-05-04T12:02:00.482Z,22.8219
2023-05-04T12:03:02.712Z,23.2644
2023-05-04T12:04:05.024Z,23.5765
2023-05-04T12:05:07.389Z,23.3281
2023-05-04T12:06:07.256Z,23.1281
2023-05-04T12:07:09.403Z,23.6355
2023-05-04T12:08:11.529Z,23.1407
2023-05-04T12:09:13.655Z,23.3889
2023-05-04T12:10:15.812Z,23.6143
2023-05-04T12:11:16.599Z,24.3665
2023-05-04T12:12:18.762Z,24.7458
2023-05-04T12:13:20.901Z,25.0384
2023-05-04T12:14:22.975Z,24.7642
2023-05-04T12:15:25.141Z,25.0339
2023-05-04T12:16:27.302Z,25.1035
2023-05-04T12:17:29.499Z,24.8934
2023-05-04T12:18:31.578Z,24.7644
2023-05-04T12:19:33.691Z,24.3926
2023-05-04T12:20:35.878Z,24.4022
2023-05-04T12:21:37.998Z,24.3147
2023-05-04T12:22:40.063Z,24.8995
2023-05-04T12:23:42.149Z,25.1884
2023-05-04T12:24:44.303Z,24.4750
2023-05-04T12:25:57.419Z,25.1986
2023-05-04T12:26:48.817Z,24.6902
2023-05-04T12:27:50.938Z,24.6219
2023-05-04T12:28:53.052Z,25.3187
2023-05-04T12:29:55.135Z,25.8246
2023-05-04T12:30:57.316Z,25.2513
2023-05-04T12:31:59.479Z,24.6887
2023-05-04T12:33:01.774Z,24.2164
2023-05-04T12:34:03.911Z,25.2315
2023-05-04T12:35:06.346Z,24.8251
2023-05-04T12:36:06.108Z,25.0374
2023-05-04T12:37:05.750Z,25.2441
2023-05-04T12:38:07.835Z,25.6395
2023-05-04T12:39:09.992Z,26.0791
2023-05-04T12:40:27.363Z,25.7408
2023-05-04T12:41:14.522Z,25.6127